sensor_id;sensor_type;location;lat;lon;timestamp;pressure;altitude;pressure_sealevel;temperature;humidity
43217;BME280;71549;42.686;23.300;2023-08-31T00:01:35;94208.50;;;28.76;26.06
43217;BME280;71549;42.686;23.300;2023-08-31T00:03:36;94213.19;;;28.72;26.42
43217;BME280;71549;42.686;23.300;2023-08-31T00:05:39;94203.91;;;28.62;26.40
43217;BME280;71549;42.686;23.300;2023-08-31T00:07:40;94215.53;;;28.70;26.21
43217;BME280;71549;42.686;23.300;2023-08-31T00:09:41;94213.59;;;28.71;26.50
43217;BME280;71549;42.686;23.300;2023-08-31T00:11:42;94199.25;;;28.59;26.02
43217;BME280;71549;42.686;23.300;2023-08-31T00:13:42;94192.25;;;28.58;25.92
43217;BME280;71549;42.686;23.300;2023-08-31T00:15:43;94113.97;;;27.99;26.10
43217;BME280;71549;42.686;23.300;2023-08-31T00:17:44;94209.72;;;28.68;26.40
43217;BME280;71549;42.686;23.300;2023-08-31T00:19:44;94182.59;;;28.47;26.08
43217;BME280;71549;42.686;23.300;2023-08-31T00:21:45;94208.19;;;28.67;25.90
43217;BME280;71549;42.686;23.300;2023-08-31T00:23:45;94207.00;;;28.68;25.95
43217;BME280;71549;42.686;23.300;2023-08-31T00:25:46;94215.56;;;28.67;26.15
43217;BME280;71549;42.686;23.300;2023-08-31T00:27:48;94182.97;;;28.41;26.39
43217;BME280;71549;42.686;23.300;2023-08-31T00:29:48;94207.03;;;28.61;26.18
43217;BME280;71549;42.686;23.300;2023-08-31T00:31:49;94219.09;;;28.63;26.27
43217;BME280;71549;42.686;23.300;2023-08-31T00:33:51;94209.78;;;28.54;26.58
43217;BME280;71549;42.686;23.300;2023-08-31T00:35:51;94229.22;;;28.59;26.50
43217;BME280;71549;42.686;23.300;2023-08-31T00:37:53;94207.09;;;28.47;26.34
43217;BME280;71549;42.686;23.300;2023-08-31T00:39:57;94221.81;;;28.56;26.00
43217;BME280;71549;42.686;23.300;2023-08-31T00:41:58;94231.94;;;28.56;26.41
43217;BME280;71549;42.686;23.300;2023-08-31T00:43:59;94235.44;;;28.56;26.38
43217;BME280;71549;42.686;23.300;2023-08-31T00:46:00;94201.69;;;28.32;26.18
43217;BME280;71549;42.686;23.300;2023-08-31T00:48:00;94213.31;;;28.40;26.20
43217;BME280;71549;42.686;23.300;2023-08-31T00:50:01;94155.94;;;27.98;25.92
43217;BME280;71549;42.686;23.300;2023-08-31T00:52:02;94055.88;;;27.32;26.28
43217;BME280;71549;42.686;23.300;2023-08-31T00:54:03;94137.31;;;27.90;26.34
43217;BME280;71549;42.686;23.300;2023-08-31T00:56:04;94126.44;;;27.75;26.74
43217;BME280;71549;42.686;23.300;2023-08-31T00:58:07;94240.91;;;28.49;26.76
43217;BME280;71549;42.686;23.300;2023-08-31T01:00:08;94212.59;;;28.32;26.49
43217;BME280;71549;42.686;23.300;2023-08-31T01:03:04;94225.00;;;28.37;26.53
43217;BME280;71549;42.686;23.300;2023-08-31T01:04:52;94216.84;;;28.30;26.57
43217;BME280;71549;42.686;23.300;2023-08-31T01:09:36;94247.53;;;28.44;26.77
43217;BME280;71549;42.686;23.300;2023-08-31T01:12:18;94243.25;;;28.43;26.84
43217;BME280;71549;42.686;23.300;2023-08-31T01:14:25;94242.09;;;28.41;26.71
43217;BME280;71549;42.686;23.300;2023-08-31T01:16:28;94242.09;;;28.37;26.91
43217;BME280;71549;42.686;23.300;2023-08-31T01:18:33;94160.63;;;27.80;27.49
43217;BME280;71549;42.686;23.300;2023-08-31T01:20:44;94250.25;;;28.34;27.39
43217;BME280;71549;42.686;23.300;2023-08-31T01:24:51;94226.19;;;28.21;27.00
43217;BME280;71549;42.686;23.300;2023-08-31T01:26:53;94225.41;;;28.28;26.15
43217;BME280;71549;42.686;23.300;2023-08-31T01:28:55;94151.31;;;27.74;26.17
43217;BME280;71549;42.686;23.300;2023-08-31T01:30:55;94239.75;;;28.36;26.13
43217;BME280;71549;42.686;23.300;2023-08-31T01:32:56;94213.78;;;28.17;26.31
43217;BME280;71549;42.686;23.300;2023-08-31T01:34:56;94233.97;;;28.30;26.38
43217;BME280;71549;42.686;23.300;2023-08-31T01:37:07;94230.88;;;28.28;26.32
43217;BME280;71549;42.686;23.300;2023-08-31T01:39:15;94224.66;;;28.20;26.11
43217;BME280;71549;42.686;23.300;2023-08-31T01:41:22;94065.94;;;27.17;26.14
43217;BME280;71549;42.686;23.300;2023-08-31T01:43:24;94235.50;;;28.28;25.94
43217;BME280;71549;42.686;23.300;2023-08-31T01:45:25;94188.19;;;28.00;26.11
43217;BME280;71549;42.686;23.300;2023-08-31T01:47:26;94241.72;;;28.35;25.93
43217;BME280;71549;42.686;23.300;2023-08-31T01:49:27;94190.91;;;28.03;26.32
43217;BME280;71549;42.686;23.300;2023-08-31T01:51:27;94181.22;;;27.92;25.97
43217;BME280;71549;42.686;23.300;2023-08-31T01:53:28;94247.16;;;28.35;26.43
43217;BME280;71549;42.686;23.300;2023-08-31T01:55:28;94221.94;;;28.20;26.24
43217;BME280;71549;42.686;23.300;2023-08-31T01:57:29;94224.28;;;28.18;26.11
43217;BME280;71549;42.686;23.300;2023-08-31T01:59:29;94229.31;;;28.23;26.80
43217;BME280;71549;42.686;23.300;2023-08-31T02:01:32;94254.56;;;28.31;26.62
43217;BME280;71549;42.686;23.300;2023-08-31T02:03:32;94123.41;;;27.44;27.00
43217;BME280;71549;42.686;23.300;2023-08-31T02:05:33;94251.44;;;28.25;27.14
43217;BME280;71549;42.686;23.300;2023-08-31T02:07:34;94253.03;;;28.23;27.44
43217;BME280;71549;42.686;23.300;2023-08-31T02:09:34;94252.25;;;28.22;27.37
43217;BME280;71549;42.686;23.300;2023-08-31T02:11:35;94107.09;;;27.19;27.15
43217;BME280;71549;42.686;23.300;2023-08-31T02:13:37;94266.63;;;28.23;27.30
43217;BME280;71549;42.686;23.300;2023-08-31T02:15:38;94207.22;;;27.85;27.03
43217;BME280;71549;42.686;23.300;2023-08-31T02:17:39;94249.53;;;28.15;27.33
43217;BME280;71549;42.686;23.300;2023-08-31T02:19:39;94264.28;;;28.25;27.25
43217;BME280;71549;42.686;23.300;2023-08-31T02:21:39;94262.72;;;28.28;27.24
43217;BME280;71549;42.686;23.300;2023-08-31T02:23:40;94233.63;;;28.10;26.81
43217;BME280;71549;42.686;23.300;2023-08-31T02:25:40;94237.91;;;28.08;26.41
43217;BME280;71549;42.686;23.300;2023-08-31T02:27:41;94197.50;;;27.84;26.92
43217;BME280;71549;42.686;23.300;2023-08-31T02:29:41;94261.56;;;28.29;27.35
43217;BME280;71549;42.686;23.300;2023-08-31T02:31:42;94234.78;;;28.09;27.17
43217;BME280;71549;42.686;23.300;2023-08-31T02:33:42;94204.53;;;27.89;27.13
43217;BME280;71549;42.686;23.300;2023-08-31T02:35:43;94255.75;;;28.27;27.31
43217;BME280;71549;42.686;23.300;2023-08-31T02:37:43;94208.41;;;27.92;27.17
43217;BME280;71549;42.686;23.300;2023-08-31T02:39:44;94254.97;;;28.19;26.82
43217;BME280;71549;42.686;23.300;2023-08-31T02:41:45;94176.19;;;27.69;27.30
43217;BME280;71549;42.686;23.300;2023-08-31T02:43:45;94252.25;;;28.15;27.19
43217;BME280;71549;42.686;23.300;2023-08-31T02:45:46;94246.03;;;28.15;27.25
43217;BME280;71549;42.686;23.300;2023-08-31T02:47:46;94253.03;;;28.23;26.73
43217;BME280;71549;42.686;23.300;2023-08-31T02:49:47;94232.06;;;28.09;26.98
43217;BME280;71549;42.686;23.300;2023-08-31T02:51:48;94266.25;;;28.24;27.12
43217;BME280;71549;42.686;23.300;2023-08-31T02:53:49;94248.78;;;28.11;26.85
43217;BME280;71549;42.686;23.300;2023-08-31T02:55:50;94242.56;;;28.07;27.14
43217;BME280;71549;42.686;23.300;2023-08-31T02:57:50;94227.44;;;27.95;26.97
43217;BME280;71549;42.686;23.300;2023-08-31T02:59:52;94266.25;;;28.17;26.88
43217;BME280;71549;42.686;23.300;2023-08-31T03:01:52;94273.25;;;28.22;26.74
43217;BME280;71549;42.686;23.300;2023-08-31T03:03:53;94255.00;;;28.04;26.86
43217;BME280;71549;42.686;23.300;2023-08-31T03:05:55;94278.31;;;28.16;26.75
43217;BME280;71549;42.686;23.300;2023-08-31T03:07:57;94280.63;;;28.21;26.83
43217;BME280;71549;42.686;23.300;2023-08-31T03:09:58;94288.00;;;28.21;26.90
43217;BME280;71549;42.686;23.300;2023-08-31T03:11:58;94249.22;;;27.95;26.94
43217;BME280;71549;42.686;23.300;2023-08-31T03:13:59;94274.06;;;28.08;26.91
43217;BME280;71549;42.686;23.300;2023-08-31T03:16:00;94263.56;;;28.03;27.04
43217;BME280;71549;42.686;23.300;2023-08-31T03:18:01;94236.00;;;27.83;26.84
43217;BME280;71549;42.686;23.300;2023-08-31T03:20:04;94263.16;;;28.01;26.86
43217;BME280;71549;42.686;23.300;2023-08-31T03:22:06;94235.59;;;27.81;26.97
43217;BME280;71549;42.686;23.300;2023-08-31T03:24:07;94250.75;;;27.93;26.93
43217;BME280;71549;42.686;23.300;2023-08-31T03:26:08;94248.41;;;27.95;26.90
43217;BME280;71549;42.686;23.300;2023-08-31T03:28:09;94282.56;;;28.17;26.66
43217;BME280;71549;42.686;23.300;2023-08-31T03:30:10;94223.16;;;27.76;26.68
43217;BME280;71549;42.686;23.300;2023-08-31T03:32:10;94185.13;;;27.55;26.92
43217;BME280;71549;42.686;23.300;2023-08-31T03:34:12;94288.41;;;28.23;27.00
43217;BME280;71549;42.686;23.300;2023-08-31T03:36:13;94180.06;;;27.50;27.36
43217;BME280;71549;42.686;23.300;2023-08-31T03:38:14;94228.22;;;27.81;27.26
43217;BME280;71549;42.686;23.300;2023-08-31T03:40:14;94265.50;;;27.99;27.45
43217;BME280;71549;42.686;23.300;2023-08-31T03:42:15;94258.94;;;27.89;27.07
43217;BME280;71549;42.686;23.300;2023-08-31T03:44:16;94232.88;;;27.77;27.20
43217;BME280;71549;42.686;23.300;2023-08-31T03:46:16;94294.25;;;28.18;27.76
43217;BME280;71549;42.686;23.300;2023-08-31T03:48:18;94288.03;;;28.07;27.36
43217;BME280;71549;42.686;23.300;2023-08-31T03:50:19;94304.34;;;28.17;27.20
43217;BME280;71549;42.686;23.300;2023-08-31T03:52:21;94284.16;;;28.00;27.23
43217;BME280;71549;42.686;23.300;2023-08-31T03:54:21;94133.88;;;26.96;26.89
43217;BME280;71549;42.686;23.300;2023-08-31T03:56:22;94222.78;;;27.56;27.05
43217;BME280;71549;42.686;23.300;2023-08-31T03:58:23;94314.06;;;28.15;27.02
43217;BME280;71549;42.686;23.300;2023-08-31T04:00:23;94270.97;;;27.88;26.90
43217;BME280;71549;42.686;23.300;2023-08-31T04:02:24;94290.75;;;28.07;27.02
43217;BME280;71549;42.686;23.300;2023-08-31T04:04:24;94322.22;;;28.15;26.87
43217;BME280;71549;42.686;23.300;2023-08-31T04:06:25;94310.97;;;28.02;27.12
43217;BME280;71549;42.686;23.300;2023-08-31T04:08:25;94329.22;;;28.09;27.16
43217;BME280;71549;42.686;23.300;2023-08-31T04:10:28;94345.56;;;28.16;26.83
43217;BME280;71549;42.686;23.300;2023-08-31T04:12:30;94340.50;;;28.07;26.83
43217;BME280;71549;42.686;23.300;2023-08-31T04:14:30;94314.88;;;27.90;26.97
43217;BME280;71549;42.686;23.300;2023-08-31T04:16:33;94315.66;;;27.87;27.11
43217;BME280;71549;42.686;23.300;2023-08-31T04:18:34;94356.44;;;28.16;27.05
43217;BME280;71549;42.686;23.300;2023-08-31T04:20:34;94356.44;;;28.12;26.88
43217;BME280;71549;42.686;23.300;2023-08-31T04:22:35;94252.28;;;27.43;27.24
43217;BME280;71549;42.686;23.300;2023-08-31T04:24:35;94354.50;;;28.05;26.93
43217;BME280;71549;42.686;23.300;2023-08-31T04:26:36;94362.66;;;28.13;27.13
43217;BME280;71549;42.686;23.300;2023-08-31T04:28:40;94357.63;;;28.04;27.21
43217;BME280;71549;42.686;23.300;2023-08-31T04:30:43;94363.84;;;28.12;27.04
43217;BME280;71549;42.686;23.300;2023-08-31T04:32:45;94270.16;;;27.52;27.35
43217;BME280;71549;42.686;23.300;2023-08-31T04:34:47;94360.31;;;28.11;27.61
43217;BME280;71549;42.686;23.300;2023-08-31T04:36:49;94371.97;;;28.15;27.39
43217;BME280;71549;42.686;23.300;2023-08-31T04:38:49;94363.03;;;28.15;27.51
43217;BME280;71549;42.686;23.300;2023-08-31T04:40:50;94342.06;;;27.94;27.29
43217;BME280;71549;42.686;23.300;2023-08-31T04:42:53;94360.72;;;28.02;27.51
43217;BME280;71549;42.686;23.300;2023-08-31T04:44:53;94370.81;;;28.13;27.66
43217;BME280;71549;42.686;23.300;2023-08-31T04:46:55;94320.66;;;27.78;27.58
43217;BME280;71549;42.686;23.300;2023-08-31T04:48:55;94340.13;;;27.87;27.50
43217;BME280;71549;42.686;23.300;2023-08-31T04:50:56;94276.75;;;27.40;27.62
43217;BME280;71549;42.686;23.300;2023-08-31T04:52:59;94366.94;;;27.99;27.35
43217;BME280;71549;42.686;23.300;2023-08-31T04:55:01;94379.78;;;28.10;27.55
43217;BME280;71549;42.686;23.300;2023-08-31T04:57:01;94354.50;;;27.98;27.45
43217;BME280;71549;42.686;23.300;2023-08-31T04:59:09;94370.81;;;28.09;27.65
43217;BME280;71549;42.686;23.300;2023-08-31T05:01:15;94345.19;;;27.92;27.14
43217;BME280;71549;42.686;23.300;2023-08-31T05:03:16;94365.38;;;28.02;27.16
43217;BME280;71549;42.686;23.300;2023-08-31T05:05:16;94372.00;;;28.08;27.15
43217;BME280;71549;42.686;23.300;2023-08-31T05:07:19;94365.00;;;27.96;27.14
43217;BME280;71549;42.686;23.300;2023-08-31T05:09:20;94384.44;;;28.13;27.52
43217;BME280;71549;42.686;23.300;2023-08-31T05:11:20;94381.31;;;28.14;27.26
43217;BME280;71549;42.686;23.300;2023-08-31T05:13:23;94323.00;;;27.76;27.09
43217;BME280;71549;42.686;23.300;2023-08-31T05:15:29;94347.88;;;27.89;27.24
43217;BME280;71549;42.686;23.300;2023-08-31T05:17:36;94393.75;;;28.15;27.18
43217;BME280;71549;42.686;23.300;2023-08-31T05:19:37;94386.75;;;28.14;27.46
43217;BME280;71549;42.686;23.300;2023-08-31T05:21:40;94388.72;;;28.14;27.40
43217;BME280;71549;42.686;23.300;2023-08-31T05:23:40;94372.78;;;27.98;27.34
43217;BME280;71549;42.686;23.300;2023-08-31T05:25:44;94300.47;;;27.57;27.21
43217;BME280;71549;42.686;23.300;2023-08-31T05:27:44;94384.03;;;28.07;27.49
43217;BME280;71549;42.686;23.300;2023-08-31T05:29:45;94343.22;;;27.85;27.63
43217;BME280;71549;42.686;23.300;2023-08-31T05:31:46;94387.53;;;28.15;27.27
43217;BME280;71549;42.686;23.300;2023-08-31T05:33:46;94388.31;;;28.15;27.46
43217;BME280;71549;42.686;23.300;2023-08-31T05:35:50;94388.31;;;28.19;27.56
43217;BME280;71549;42.686;23.300;2023-08-31T05:37:50;94373.53;;;28.16;27.32
43217;BME280;71549;42.686;23.300;2023-08-31T05:39:51;94272.47;;;27.46;27.87
43217;BME280;71549;42.686;23.300;2023-08-31T05:41:52;94384.03;;;28.21;27.87
43217;BME280;71549;42.686;23.300;2023-08-31T05:43:52;94388.31;;;28.22;27.62
43217;BME280;71549;42.686;23.300;2023-08-31T05:45:54;94345.19;;;27.96;27.69
43217;BME280;71549;42.686;23.300;2023-08-31T05:47:54;94347.88;;;28.03;27.42
43217;BME280;71549;42.686;23.300;2023-08-31T05:49:55;94358.78;;;28.10;27.20
43217;BME280;71549;42.686;23.300;2023-08-31T05:51:55;94385.19;;;28.28;27.33
43217;BME280;71549;42.686;23.300;2023-08-31T05:53:56;94326.50;;;27.91;26.63
43217;BME280;71549;42.686;23.300;2023-08-31T05:55:57;94386.00;;;28.28;27.00
43217;BME280;71549;42.686;23.300;2023-08-31T05:58:04;94381.69;;;28.27;27.01
43217;BME280;71549;42.686;23.300;2023-08-31T06:00:05;94360.31;;;28.11;27.26
43217;BME280;71549;42.686;23.300;2023-08-31T06:02:08;94330.78;;;27.99;27.25
43217;BME280;71549;42.686;23.300;2023-08-31T06:04:09;94356.44;;;28.12;27.27
43217;BME280;71549;42.686;23.300;2023-08-31T06:06:10;94338.97;;;27.95;26.89
43217;BME280;71549;42.686;23.300;2023-08-31T06:08:10;94380.16;;;28.19;26.82
43217;BME280;71549;42.686;23.300;2023-08-31T06:10:13;94372.00;;;28.12;26.62
43217;BME280;71549;42.686;23.300;2023-08-31T06:12:15;94333.50;;;27.81;27.04
43217;BME280;71549;42.686;23.300;2023-08-31T06:14:15;94327.28;;;27.84;26.80
43217;BME280;71549;42.686;23.300;2023-08-31T06:16:17;94391.03;;;28.22;26.97
43217;BME280;71549;42.686;23.300;2023-08-31T06:18:20;94343.63;;;27.95;26.51
43217;BME280;71549;42.686;23.300;2023-08-31T06:20:21;94378.59;;;28.14;26.97
43217;BME280;71549;42.686;23.300;2023-08-31T06:22:22;94316.78;;;27.64;26.44
43217;BME280;71549;42.686;23.300;2023-08-31T06:24:24;94333.50;;;27.81;27.06
43217;BME280;71549;42.686;23.300;2023-08-31T06:26:25;94310.56;;;27.64;26.67
43217;BME280;71549;42.686;23.300;2023-08-31T06:28:26;94205.66;;;26.98;26.81
43217;BME280;71549;42.686;23.300;2023-08-31T06:30:27;94343.97;;;27.86;26.80
43217;BME280;71549;42.686;23.300;2023-08-31T06:32:29;94416.28;;;28.34;27.22
43217;BME280;71549;42.686;23.300;2023-08-31T06:34:34;94417.88;;;28.38;26.75
43217;BME280;71549;42.686;23.300;2023-08-31T06:36:36;94362.25;;;27.93;27.17
43217;BME280;71549;42.686;23.300;2023-08-31T06:38:36;94414.34;;;28.31;27.03
43217;BME280;71549;42.686;23.300;2023-08-31T06:40:38;94324.94;;;27.72;26.83
43217;BME280;71549;42.686;23.300;2023-08-31T06:42:39;94431.44;;;28.42;26.97
43217;BME280;71549;42.686;23.300;2023-08-31T06:44:39;94434.59;;;28.40;27.13
43217;BME280;71549;42.686;23.300;2023-08-31T06:46:40;94440.41;;;28.39;27.07
43217;BME280;71549;42.686;23.300;2023-08-31T06:48:41;94396.09;;;28.13;26.78
43217;BME280;71549;42.686;23.300;2023-08-31T06:50:41;94372.38;;;28.03;26.64
43217;BME280;71549;42.686;23.300;2023-08-31T06:52:43;94370.84;;;28.02;26.54
43217;BME280;71549;42.686;23.300;2023-08-31T06:54:44;94406.97;;;28.24;27.08
43217;BME280;71549;42.686;23.300;2023-08-31T06:56:45;94433.41;;;28.41;26.84
43217;BME280;71549;42.686;23.300;2023-08-31T06:58:45;94366.56;;;27.97;27.01
43217;BME280;71549;42.686;23.300;2023-08-31T07:00:46;94361.09;;;28.01;26.94
43217;BME280;71549;42.686;23.300;2023-08-31T07:02:53;94412.41;;;28.31;26.62
43217;BME280;71549;42.686;23.300;2023-08-31T07:04:53;94414.75;;;28.36;26.64
43217;BME280;71549;42.686;23.300;2023-08-31T07:06:54;94397.25;;;28.23;26.67
43217;BME280;71549;42.686;23.300;2023-08-31T07:08:54;94441.59;;;28.52;26.77
43217;BME280;71549;42.686;23.300;2023-08-31T07:10:57;94338.53;;;27.86;27.19
43217;BME280;71549;42.686;23.300;2023-08-31T07:13:04;94436.50;;;28.43;27.25
43217;BME280;71549;42.686;23.300;2023-08-31T07:15:07;94355.25;;;27.84;27.32
43217;BME280;71549;42.686;23.300;2023-08-31T07:17:07;94263.50;;;27.20;26.86
43217;BME280;71549;42.686;23.300;2023-08-31T07:19:08;94375.09;;;27.92;26.89
43217;BME280;71549;42.686;23.300;2023-08-31T07:21:18;94418.25;;;28.19;27.58
43217;BME280;71549;42.686;23.300;2023-08-31T07:23:27;94425.22;;;28.23;27.86
43217;BME280;71549;42.686;23.300;2023-08-31T07:25:29;94431.47;;;28.24;27.24
43217;BME280;71549;42.686;23.300;2023-08-31T07:27:29;94420.19;;;28.15;27.05
43217;BME280;71549;42.686;23.300;2023-08-31T07:29:31;94451.28;;;28.35;27.14
43217;BME280;71549;42.686;23.300;2023-08-31T07:31:32;94419.81;;;28.20;27.55
43217;BME280;71549;42.686;23.300;2023-08-31T07:33:34;94450.13;;;28.36;27.22
43217;BME280;71549;42.686;23.300;2023-08-31T07:35:35;94426.00;;;28.17;26.69
43217;BME280;71549;42.686;23.300;2023-08-31T07:37:37;94448.56;;;28.35;27.07
43217;BME280;71549;42.686;23.300;2023-08-31T07:39:37;94438.84;;;28.23;26.92
43217;BME280;71549;42.686;23.300;2023-08-31T07:41:38;94431.47;;;28.17;27.11
43217;BME280;71549;42.686;23.300;2023-08-31T07:43:39;94447.41;;;28.33;26.67
43217;BME280;71549;42.686;23.300;2023-08-31T07:45:48;94421.75;;;28.09;27.05
43217;BME280;71549;42.686;23.300;2023-08-31T07:47:49;94449.72;;;28.23;27.15
43217;BME280;71549;42.686;23.300;2023-08-31T07:49:49;94430.69;;;28.16;27.14
43217;BME280;71549;42.686;23.300;2023-08-31T07:51:50;94433.81;;;28.18;26.87
43217;BME280;71549;42.686;23.300;2023-08-31T07:53:51;94461.03;;;28.33;26.50
43217;BME280;71549;42.686;23.300;2023-08-31T07:55:55;94375.84;;;27.75;26.56
43217;BME280;71549;42.686;23.300;2023-08-31T07:57:56;94452.84;;;28.33;27.16
43217;BME280;71549;42.686;23.300;2023-08-31T07:59:57;94459.84;;;28.34;26.87
43217;BME280;71549;42.686;23.300;2023-08-31T08:01:58;94354.06;;;27.60;26.43
43217;BME280;71549;42.686;23.300;2023-08-31T08:03:59;94450.13;;;28.22;26.79
43217;BME280;71549;42.686;23.300;2023-08-31T08:05:59;94436.91;;;28.17;26.44
43217;BME280;71549;42.686;23.300;2023-08-31T08:08:00;94431.47;;;28.17;26.29
43217;BME280;71549;42.686;23.300;2023-08-31T08:10:02;94360.69;;;27.74;26.10
43217;BME280;71549;42.686;23.300;2023-08-31T08:12:04;94451.28;;;28.32;25.94
43217;BME280;71549;42.686;23.300;2023-08-31T08:14:06;94443.50;;;28.19;26.79
43217;BME280;71549;42.686;23.300;2023-08-31T08:16:08;94450.91;;;28.19;26.21
43217;BME280;71549;42.686;23.300;2023-08-31T08:18:09;94404.63;;;27.90;26.57
43217;BME280;71549;42.686;23.300;2023-08-31T08:20:11;94462.59;;;28.30;26.91
43217;BME280;71549;42.686;23.300;2023-08-31T08:22:13;94451.28;;;28.17;26.47
43217;BME280;71549;42.686;23.300;2023-08-31T08:24:14;94409.31;;;28.04;26.63
43217;BME280;71549;42.686;23.300;2023-08-31T08:26:15;94451.31;;;28.28;26.40
43217;BME280;71549;42.686;23.300;2023-08-31T08:28:15;94357.97;;;27.67;26.09
43217;BME280;71549;42.686;23.300;2023-08-31T08:30:16;94425.63;;;28.08;26.18
43217;BME280;71549;42.686;23.300;2023-08-31T08:32:18;94453.63;;;28.30;26.56
43217;BME280;71549;42.686;23.300;2023-08-31T08:34:19;94461.41;;;28.31;27.26
43217;BME280;71549;42.686;23.300;2023-08-31T08:36:19;94369.63;;;27.71;26.91
43217;BME280;71549;42.686;23.300;2023-08-31T08:38:20;94420.19;;;28.08;26.43
43217;BME280;71549;42.686;23.300;2023-08-31T08:40:22;94468.00;;;28.34;26.07
43217;BME280;71549;42.686;23.300;2023-08-31T08:42:25;94440.03;;;28.22;25.78
43217;BME280;71549;42.686;23.300;2023-08-31T08:44:26;94463.75;;;28.33;25.82
43217;BME280;71549;42.686;23.300;2023-08-31T08:46:32;94447.81;;;28.24;26.04
43217;BME280;71549;42.686;23.300;2023-08-31T08:48:34;94450.50;;;28.31;25.68
43217;BME280;71549;42.686;23.300;2023-08-31T08:50:36;94448.56;;;28.32;25.34
43217;BME280;71549;42.686;23.300;2023-08-31T08:52:38;94402.69;;;27.94;25.36
43217;BME280;71549;42.686;23.300;2023-08-31T08:54:39;94429.13;;;28.12;24.89
43217;BME280;71549;42.686;23.300;2023-08-31T08:56:40;94406.97;;;27.99;24.83
43217;BME280;71549;42.686;23.300;2023-08-31T08:58:40;94420.19;;;28.04;24.56
43217;BME280;71549;42.686;23.300;2023-08-31T09:00:41;94434.59;;;28.12;25.12
43217;BME280;71549;42.686;23.300;2023-08-31T09:02:43;94409.28;;;27.97;24.76
43217;BME280;71549;42.686;23.300;2023-08-31T09:04:44;94373.09;;;27.78;24.99
43217;BME280;71549;42.686;23.300;2023-08-31T09:06:45;94459.06;;;28.22;24.63
43217;BME280;71549;42.686;23.300;2023-08-31T09:08:53;94276.66;;;27.11;25.12
43217;BME280;71549;42.686;23.300;2023-08-31T09:10:56;94401.91;;;27.94;24.78
43217;BME280;71549;42.686;23.300;2023-08-31T09:13:00;94460.25;;;28.29;25.19
43217;BME280;71549;42.686;23.300;2023-08-31T09:15:01;94455.56;;;28.29;24.86
43217;BME280;71549;42.686;23.300;2023-08-31T09:17:02;94377.78;;;27.78;25.14
43217;BME280;71549;42.686;23.300;2023-08-31T09:19:20;94466.44;;;28.29;25.48
43217;BME280;71549;42.686;23.300;2023-08-31T09:21:21;94365.34;;;27.73;25.26
43217;BME280;71549;42.686;23.300;2023-08-31T09:23:21;94464.13;;;28.31;25.54
43217;BME280;71549;42.686;23.300;2023-08-31T09:25:22;94381.66;;;27.73;25.36
43217;BME280;71549;42.686;23.300;2023-08-31T09:27:22;94421.34;;;27.99;25.82
43217;BME280;71549;42.686;23.300;2023-08-31T09:29:25;94446.22;;;28.09;25.30
43217;BME280;71549;42.686;23.300;2023-08-31T09:31:29;94406.19;;;27.95;25.64
43217;BME280;71549;42.686;23.300;2023-08-31T09:33:30;94412.81;;;27.97;25.74
43217;BME280;71549;42.686;23.300;2023-08-31T09:35:31;94463.34;;;28.31;25.30
43217;BME280;71549;42.686;23.300;2023-08-31T09:37:32;94460.63;;;28.31;25.74
43217;BME280;71549;42.686;23.300;2023-08-31T09:39:36;94464.13;;;28.31;25.73
43217;BME280;71549;42.686;23.300;2023-08-31T09:41:54;94452.06;;;28.21;25.54
43217;BME280;71549;42.686;23.300;2023-08-31T09:43:55;94264.66;;;27.12;25.57
43217;BME280;71549;42.686;23.300;2023-08-31T09:45:55;94447.03;;;28.31;25.66
43217;BME280;71549;42.686;23.300;2023-08-31T09:47:57;94431.84;;;28.15;25.67
43217;BME280;71549;42.686;23.300;2023-08-31T09:49:59;94438.84;;;28.31;25.49
43217;BME280;71549;42.686;23.300;2023-08-31T09:52:02;94312.09;;;27.43;25.67
43217;BME280;71549;42.686;23.300;2023-08-31T09:54:03;94457.53;;;28.32;25.67
43217;BME280;71549;42.686;23.300;2023-08-31T09:56:06;94394.91;;;27.93;25.39
43217;BME280;71549;42.686;23.300;2023-08-31T09:58:08;94457.13;;;28.30;25.04
43217;BME280;71549;42.686;23.300;2023-08-31T10:00:09;94404.25;;;28.06;24.87
43217;BME280;71549;42.686;23.300;2023-08-31T10:02:12;94451.69;;;28.30;24.83
43217;BME280;71549;42.686;23.300;2023-08-31T10:04:14;94451.28;;;28.32;24.78
43217;BME280;71549;42.686;23.300;2023-08-31T10:06:15;94411.63;;;28.09;24.84
43217;BME280;71549;42.686;23.300;2023-08-31T10:08:16;94442.34;;;28.28;24.54
43217;BME280;71549;42.686;23.300;2023-08-31T10:10:18;94352.53;;;27.77;24.76
43217;BME280;71549;42.686;23.300;2023-08-31T10:12:20;94438.88;;;28.34;24.69
43217;BME280;71549;42.686;23.300;2023-08-31T10:14:21;94415.91;;;28.17;24.63
43217;BME280;71549;42.686;23.300;2023-08-31T10:16:23;94434.59;;;28.26;24.42
43217;BME280;71549;42.686;23.300;2023-08-31T10:18:25;94408.53;;;28.14;24.06
43217;BME280;71549;42.686;23.300;2023-08-31T10:20:26;94457.13;;;28.34;24.16
43217;BME280;71549;42.686;23.300;2023-08-31T10:22:29;94347.47;;;27.72;24.13
43217;BME280;71549;42.686;23.300;2023-08-31T10:24:58;94436.91;;;28.35;24.07
43217;BME280;71549;42.686;23.300;2023-08-31T10:27:17;94436.53;;;28.36;24.27
43217;BME280;71549;42.686;23.300;2023-08-31T10:29:27;94432.66;;;28.30;24.42
43217;BME280;71549;42.686;23.300;2023-08-31T10:31:30;94430.69;;;28.31;23.98
43217;BME280;71549;42.686;23.300;2023-08-31T10:33:42;94417.47;;;28.18;24.23
43217;BME280;71549;42.686;23.300;2023-08-31T10:35:51;94442.75;;;28.37;24.47
43217;BME280;71549;42.686;23.300;2023-08-31T10:37:51;94350.19;;;27.72;24.37
43217;BME280;71549;42.686;23.300;2023-08-31T10:40:06;94455.94;;;28.42;24.49
43217;BME280;71549;42.686;23.300;2023-08-31T10:42:07;94459.47;;;28.42;24.27
43217;BME280;71549;42.686;23.300;2023-08-31T10:44:21;94420.97;;;28.15;24.31